Time;durP1;ratioP1;P1;durP2;ratioP2;P2;SDS_P1;SDS_P2;PMS_P1;PMS_P2;Temp;Humidity;BMP_temperature;BMP_pressure;BME280_temperature;BME280_humidity;BME280_pressure;Samples;Min_cycle;Max_cycle;Signal;HPM_P1;HPM_P2
2022/04/13 00:02:20;;;;;;;;;4.00;2.00;;;;;16.96;58.23;101035.09;5066038;28;45164;-70
2022/04/13 00:04:46;;;;;;;;;2.67;2.67;;;;;16.91;58.51;101023.81;5078456;28;45497;-71
2022/04/13 00:07:11;;;;;;;;;4.00;4.00;;;;;16.80;58.41;101018.78;5065442;28;45264;-70
2022/04/13 00:09:37;;;;;;;;;3.00;3.00;;;;;16.81;59.34;101022.34;5079320;28;45342;-70
2022/04/13 00:12:03;;;;;;;;;3.00;3.00;;;;;16.80;59.20;101024.28;5074676;28;45422;-71
2022/04/13 00:14:29;;;;;;;;;3.00;3.00;;;;;16.83;58.95;101029.38;5078928;28;45693;-71
2022/04/13 00:16:55;;;;;;;;;1.67;1.33;;;;;16.80;59.56;101029.75;5065582;28;46177;-71
2022/04/13 00:19:21;;;;;;;;;4.67;4.67;;;;;16.76;59.40;101031.13;5080139;28;45468;-70
2022/04/13 00:21:47;;;;;;;;;5.67;3.00;;;;;16.83;59.60;101037.59;5074020;28;45407;-70
2022/04/13 00:24:13;;;;;;;;;4.00;2.67;;;;;16.81;59.94;101039.66;5076419;28;45383;-70
2022/04/13 00:26:39;;;;;;;;;2.67;2.67;;;;;16.85;60.04;101045.66;5072157;28;45577;-70
2022/04/13 00:29:04;;;;;;;;;3.00;2.00;;;;;16.83;60.07;101037.59;5080283;27;45317;-70
2022/04/13 00:31:30;;;;;;;;;3.00;3.00;;;;;16.70;60.09;101040.09;5064626;28;45309;-70
2022/04/13 00:33:55;;;;;;;;;3.67;3.00;;;;;16.68;60.45;101040.28;5073487;28;45416;-70
2022/04/13 00:36:20;;;;;;;;;2.00;2.00;;;;;16.86;59.49;101045.47;5069000;28;45314;-70
2022/04/13 00:38:46;;;;;;;;;3.67;3.00;;;;;16.90;59.09;101054.19;5071741;28;45246;-71
2022/04/13 00:41:12;;;;;;;;;3.67;2.00;;;;;16.91;59.96;101051.28;5077081;28;45349;-70
2022/04/13 00:43:38;;;;;;;;;3.00;3.00;;;;;16.88;59.69;101046.13;5070712;28;45437;-70
2022/04/13 00:46:03;;;;;;;;;2.33;2.00;;;;;16.90;59.48;101044.06;5066386;28;45289;-70
2022/04/13 00:48:35;;;;;;;;;1.00;1.00;;;;;16.97;59.09;101058.78;5068697;28;45432;-70
2022/04/13 00:51:01;;;;;;;;;3.00;3.00;;;;;16.99;59.35;101058.59;5065364;28;45448;-70
2022/04/13 00:53:29;;;;;;;;;1.00;1.00;;;;;17.04;59.26;101050.66;5077677;28;45659;-71
2022/04/13 00:55:58;;;;;;;;;3.00;3.00;;;;;16.99;59.57;101040.25;5074939;28;45483;-70
2022/04/13 00:58:26;;;;;;;;;2.33;2.33;;;;;16.86;60.02;101031.75;5067700;28;45476;-71
2022/04/13 01:00:53;;;;;;;;;4.00;2.00;;;;;16.81;59.87;101027.84;5075160;27;45237;-71
2022/04/13 01:03:24;;;;;;;;;1.33;1.33;;;;;16.81;59.92;101036.06;5068463;28;45174;-70
2022/04/13 01:05:51;;;;;;;;;3.00;3.00;;;;;16.80;60.29;101029.75;5073836;28;45330;-70
2022/04/13 01:08:18;;;;;;;;;3.00;3.00;;;;;16.72;60.45;101029.81;5067676;28;45486;-70
2022/04/13 01:10:46;;;;;;;;;1.00;1.00;;;;;16.76;60.31;101044.00;5081469;28;45435;-71
2022/04/13 01:13:13;;;;;;;;;4.00;4.00;;;;;16.64;60.57;101032.59;5070021;27;45557;-70
2022/04/13 01:15:39;;;;;;;;;2.00;2.00;;;;;16.67;60.38;101033.06;5078879;28;47438;-71
2022/04/13 01:18:04;;;;;;;;;4.00;2.67;;;;;16.64;60.50;101040.81;5070729;28;45399;-70
2022/04/13 01:20:30;;;;;;;;;3.33;3.33;;;;;16.63;60.48;101047.34;5078396;27;45403;-70
2022/04/13 01:22:56;;;;;;;;;3.00;3.00;;;;;16.62;60.71;101042.88;5081414;28;45598;-70
2022/04/13 01:25:21;;;;;;;;;3.00;3.00;;;;;16.39;60.31;100998.94;5076965;28;47104;-70
2022/04/13 01:27:47;;;;;;;;;3.00;3.00;;;;;16.55;61.78;101039.13;5071870;27;45322;-70
2022/04/13 01:30:13;;;;;;;;;4.67;3.00;;;;;16.49;61.40;101051.69;5075421;28;45261;-70
2022/04/13 01:32:39;;;;;;;;;3.33;3.33;;;;;16.44;61.65;101047.78;5066817;28;45404;-70
2022/04/13 01:35:06;;;;;;;;;3.00;3.00;;;;;16.38;62.31;101051.19;5073290;28;46114;-70
2022/04/13 01:37:32;;;;;;;;;3.33;3.33;;;;;16.36;61.73;101052.22;5066003;27;45484;-70
2022/04/13 01:39:57;;;;;;;;;3.00;3.00;;;;;16.36;61.69;101048.66;5080076;28;45396;-70
2022/04/13 01:42:23;;;;;;;;;2.33;2.33;;;;;16.44;62.00;101058.75;5066982;28;45342;-70
2022/04/13 01:44:48;;;;;;;;;3.33;3.00;;;;;16.49;61.54;101053.56;5069666;28;45446;-70
2022/04/13 01:47:14;;;;;;;;;4.00;3.00;;;;;16.53;62.28;101058.50;5066111;28;45369;-70
2022/04/13 01:49:40;;;;;;;;;3.00;3.00;;;;;16.52;62.06;101061.41;5075277;28;45379;-70
2022/04/13 01:52:07;;;;;;;;;3.67;2.00;;;;;16.49;62.25;101064.53;5067008;28;45330;-70
2022/04/13 01:54:33;;;;;;;;;2.00;2.00;;;;;16.52;62.40;101055.94;5073485;28;46612;-72
2022/04/13 01:56:59;;;;;;;;;2.00;2.00;;;;;16.50;62.15;101058.03;5066406;28;45226;-70
2022/04/13 01:59:24;;;;;;;;;5.00;3.33;;;;;16.45;63.16;101063.16;5070603;28;45738;-70
2022/04/13 02:01:50;;;;;;;;;3.00;3.00;;;;;16.39;62.52;101063.88;5078583;28;45321;-70
2022/04/13 02:04:19;;;;;;;;;4.67;3.33;;;;;16.34;62.81;101065.28;5072433;28;46686;-71
2022/04/13 02:06:45;;;;;;;;;5.00;3.67;;;;;16.36;62.47;101068.69;5065206;27;45346;-70
2022/04/13 02:09:11;;;;;;;;;4.67;3.00;;;;;16.35;62.63;101072.50;5073646;28;45335;-70
2022/04/13 02:11:36;;;;;;;;;4.67;3.33;;;;;16.41;62.59;101070.06;5066168;27;45507;-70
2022/04/13 02:14:01;;;;;;;;;3.00;3.00;;;;;16.42;62.64;101078.09;5073176;28;46901;-70
2022/04/13 02:16:27;;;;;;;;;3.33;3.00;;;;;16.41;62.38;101075.53;5070088;28;45317;-70
2022/04/13 02:18:52;;;;;;;;;4.00;3.67;;;;;16.31;62.60;101076.59;5073165;28;45478;-70
2022/04/13 02:21:17;;;;;;;;;4.00;3.67;;;;;16.29;63.54;101092.38;5072268;28;45492;-70
2022/04/13 02:23:43;;;;;;;;;3.00;3.00;;;;;16.29;63.08;101081.41;5089610;27;48441;-71
2022/04/13 02:26:08;;;;;;;;;7.00;4.00;;;;;16.34;63.50;101083.63;5071988;28;45383;-70
2022/04/13 02:28:34;;;;;;;;;5.00;5.00;;;;;16.34;63.02;101092.72;5076158;27;45974;-70
2022/04/13 02:30:59;;;;;;;;;4.00;4.00;;;;;16.35;63.38;101080.72;5071686;28;45396;-70
2022/04/13 02:33:25;;;;;;;;;5.00;5.00;;;;;16.38;63.63;101087.72;5068083;28;45399;-70
2022/04/13 02:35:50;;;;;;;;;3.00;3.00;;;;;16.38;63.20;101092.34;5070132;28;45416;-70
2022/04/13 02:38:16;;;;;;;;;3.00;3.00;;;;;16.32;63.72;101086.53;5071948;28;45263;-70
2022/04/13 02:40:43;;;;;;;;;3.00;3.00;;;;;16.36;64.14;101090.63;5069136;28;45408;-70
2022/04/13 02:43:08;;;;;;;;;6.67;4.33;;;;;16.39;64.67;101094.06;5071487;28;47036;-70
2022/04/13 02:45:34;;;;;;;;;3.00;3.00;;;;;16.35;64.94;101102.66;5068302;27;45328;-70
2022/04/13 02:48:00;;;;;;;;;3.00;3.00;;;;;16.40;65.52;101093.88;5064455;28;45278;-70
2022/04/13 02:50:26;;;;;;;;;4.33;4.33;;;;;16.33;66.68;101095.63;5067429;28;45317;-70
2022/04/13 02:52:54;;;;;;;;;5.00;5.00;;;;;16.28;67.54;101087.94;5063103;28;47030;-70
2022/04/13 02:55:20;;;;;;;;;5.00;4.67;;;;;16.28;67.00;101087.09;5081251;28;45401;-71
2022/04/13 02:57:45;;;;;;;;;4.00;4.00;;;;;16.21;67.72;101089.69;5072530;27;45400;-70
2022/04/13 03:00:11;;;;;;;;;6.00;6.00;;;;;16.08;68.46;101086.63;5076223;28;45692;-70
2022/04/13 03:02:39;;;;;;;;;6.33;5.00;;;;;16.09;69.19;101087.47;5063300;28;45459;-70
2022/04/13 03:05:05;;;;;;;;;7.33;5.00;;;;;16.02;68.87;101073.63;5076297;28;45573;-70
2022/04/13 03:07:32;;;;;;;;;6.00;5.00;;;;;16.01;69.81;101085.59;5063033;28;45487;-70
2022/04/13 03:09:58;;;;;;;;;8.67;6.00;;;;;15.94;70.08;101085.47;5075941;28;45304;-70
2022/04/13 03:12:24;;;;;;;;;7.00;6.00;;;;;15.94;69.98;101092.81;5063200;28;45370;-70
2022/04/13 03:14:50;;;;;;;;;4.00;4.00;;;;;15.96;69.28;101085.28;5074502;28;45387;-71
2022/04/13 03:17:15;;;;;;;;;5.00;4.33;;;;;16.03;69.47;101096.41;5071695;28;45392;-71
2022/04/13 03:19:41;;;;;;;;;8.00;8.00;;;;;15.96;69.81;101079.81;5076517;28;45357;-71
2022/04/13 03:22:06;;;;;;;;;3.00;2.00;;;;;16.05;69.05;101106.16;5068757;28;46950;-70
2022/04/13 03:24:34;;;;;;;;;6.00;6.00;;;;;16.01;70.60;101109.41;5071970;28;45393;-71
2022/04/13 03:26:59;;;;;;;;;5.67;5.67;;;;;16.02;70.33;101117.47;5069179;28;45393;-70
2022/04/13 03:29:25;;;;;;;;;6.00;6.00;;;;;16.07;70.36;101122.44;5078041;27;45480;-71
2022/04/13 03:31:50;;;;;;;;;5.50;5.50;;;;;15.92;71.28;101120.41;5067833;28;46643;-71
2022/04/13 03:34:20;;;;;;;;;5.67;5.00;;;;;15.86;71.60;101128.44;5074031;28;45503;-70
2022/04/13 03:36:48;;;;;;;;;7.33;4.00;;;;;15.68;71.92;101125.06;5065965;28;45433;-71
2022/04/13 03:39:14;;;;;;;;;5.33;5.00;;;;;15.69;72.31;101126.78;5069432;28;45511;-70
2022/04/13 03:41:40;;;;;;;;;5.00;5.00;;;;;15.71;73.48;101136.50;5064657;28;45588;-71
2022/04/13 03:44:06;;;;;;;;;3.33;3.00;;;;;15.70;73.08;101137.56;5068979;28;45349;-70
2022/04/13 03:46:32;;;;;;;;;4.33;3.67;;;;;15.72;73.55;101145.59;5064016;28;45434;-70
2022/04/13 03:48:57;;;;;;;;;5.00;4.00;;;;;15.65;73.99;101130.88;5074868;28;45356;-70
2022/04/13 03:51:23;;;;;;;;;5.67;5.67;;;;;15.66;74.38;101136.19;5068797;28;46573;-70
2022/04/13 03:53:48;;;;;;;;;10.67;7.00;;;;;15.70;74.18;101147.66;5068799;28;45475;-68
2022/04/13 03:56:13;;;;;;;;;6.00;3.67;;;;;15.61;74.33;101148.69;5080137;28;45480;-69
2022/04/13 03:58:40;;;;;;;;;5.00;5.00;;;;;15.48;75.18;101160.13;5069197;28;45534;-68
2022/04/13 04:01:10;;;;;;;;;5.00;5.00;;;;;15.42;76.48;101152.56;5070534;28;46198;-68
2022/04/13 04:03:36;;;;;;;;;6.00;5.00;;;;;15.42;77.05;101160.78;5064690;28;45207;-68
2022/04/13 04:06:02;;;;;;;;;6.00;6.00;;;;;15.39;77.50;101166.63;5067244;27;45605;-68
2022/04/13 04:08:28;;;;;;;;;8.00;6.33;;;;;15.26;77.13;101161.66;5067311;28;45383;-68
2022/04/13 04:10:54;;;;;;;;;8.00;7.00;;;;;15.24;77.50;101158.22;5072883;28;47044;-68
2022/04/13 04:13:20;;;;;;;;;8.00;6.67;;;;;15.24;77.48;101169.16;5064641;28;46271;-68
2022/04/13 04:15:46;;;;;;;;;9.00;7.67;;;;;15.24;78.37;101160.94;5075694;28;45500;-70
2022/04/13 04:18:11;;;;;;;;;6.33;6.33;;;;;15.25;77.91;101165.41;5066334;27;45477;-68
2022/04/13 04:20:37;;;;;;;;;9.00;6.33;;;;;15.31;78.49;101170.19;5076312;27;46463;-69
2022/04/13 04:23:02;;;;;;;;;7.00;6.00;;;;;15.19;78.31;101166.91;5081762;27;45318;-68
2022/04/13 04:25:28;;;;;;;;;7.00;7.00;;;;;15.24;78.80;101174.63;5075433;27;45377;-68
2022/04/13 04:27:53;;;;;;;;;14.00;8.00;;;;;15.23;79.46;101170.19;5065823;27;45448;-69
2022/04/13 04:30:18;;;;;;;;;7.33;6.00;;;;;15.04;79.58;101170.50;5068903;27;46172;-69
2022/04/13 04:32:44;;;;;;;;;7.00;7.00;;;;;15.01;80.95;101174.41;5074157;28;45487;-70
2022/04/13 04:35:10;;;;;;;;;7.00;6.33;;;;;14.92;80.70;101180.00;5065124;28;45383;-69
2022/04/13 04:37:35;;;;;;;;;7.33;7.33;;;;;14.96;80.86;101186.88;5069653;28;45332;-69
2022/04/13 04:40:00;;;;;;;;;8.33;8.33;;;;;14.98;81.33;101185.69;5071127;28;45472;-69
2022/04/13 04:42:27;;;;;;;;;10.33;8.67;;;;;14.96;81.35;101189.63;5066406;28;45244;-70
2022/04/13 04:44:57;;;;;;;;;10.00;7.33;;;;;14.98;80.85;101199.34;5069337;28;45497;-70
2022/04/13 04:47:23;;;;;;;;;8.67;7.00;;;;;15.05;80.88;101199.56;5065188;28;45463;-69
2022/04/13 04:49:48;;;;;;;;;8.33;7.00;;;;;15.02;80.63;101194.44;5068655;28;45338;-70
2022/04/13 04:52:13;;;;;;;;;10.33;8.33;;;;;14.95;80.63;101183.28;5064610;28;45434;-69
2022/04/13 04:54:39;;;;;;;;;9.00;9.00;;;;;14.87;80.79;101191.47;5078943;28;45377;-69
2022/04/13 04:57:04;;;;;;;;;8.67;7.00;;;;;14.90;81.09;101187.56;5066927;28;45351;-69
2022/04/13 04:59:30;;;;;;;;;7.00;7.00;;;;;14.96;80.62;101175.94;5093801;27;46777;-69
2022/04/13 05:01:55;;;;;;;;;9.33;8.00;;;;;15.04;80.98;101190.50;5074462;28;45364;-68
2022/04/13 05:04:21;;;;;;;;;12.67;8.67;;;;;15.03;81.01;101188.78;5073750;28;45466;-68
2022/04/13 05:06:46;;;;;;;;;10.33;10.33;;;;;15.03;80.88;101187.94;5074276;28;45570;-68
2022/04/13 05:09:11;;;;;;;;;14.67;10.00;;;;;15.01;81.46;101190.81;5072837;28;45566;-68
2022/04/13 05:11:37;;;;;;;;;12.00;8.67;;;;;15.01;81.11;101195.44;5072162;27;45391;-68
2022/04/13 05:14:02;;;;;;;;;10.33;9.67;;;;;15.04;80.91;101204.19;5071621;28;45458;-69
2022/04/13 05:16:28;;;;;;;;;10.67;10.33;;;;;15.12;81.75;101217.03;5073607;28;45397;-68
2022/04/13 05:18:53;;;;;;;;;11.00;7.33;;;;;15.10;81.75;101200.78;5067471;28;48016;-70
2022/04/13 05:21:18;;;;;;;;;10.33;9.67;;;;;15.12;82.04;101206.09;5064067;28;45466;-69
2022/04/13 05:23:44;;;;;;;;;10.67;9.33;;;;;15.09;81.41;101198.22;5071157;28;48387;-71
2022/04/13 05:26:10;;;;;;;;;10.67;9.33;;;;;15.16;81.24;101210.19;5073182;28;45514;-68
2022/04/13 05:28:36;;;;;;;;;12.33;11.67;;;;;15.15;81.74;101208.47;5077164;27;46112;-68
2022/04/13 05:31:01;;;;;;;;;14.00;10.00;;;;;15.17;80.46;101211.91;5070607;28;45382;-69
2022/04/13 05:33:26;;;;;;;;;9.33;9.33;;;;;15.21;80.35;101213.28;5068959;28;45329;-69
2022/04/13 05:35:52;;;;;;;;;10.00;7.00;;;;;15.17;80.22;101193.63;5071208;28;45336;-69
2022/04/13 05:38:18;;;;;;;;;9.33;9.33;;;;;15.25;79.96;101209.22;5067022;28;45446;-71
2022/04/13 05:40:44;;;;;;;;;11.33;11.33;;;;;15.15;80.74;101200.28;5070210;28;45404;-68
2022/04/13 05:43:09;;;;;;;;;10.00;8.00;;;;;15.25;79.99;101209.22;5066253;28;45261;-70
2022/04/13 05:45:35;;;;;;;;;7.33;6.00;;;;;15.31;79.24;101214.00;5075642;28;45375;-69
2022/04/13 05:48:00;;;;;;;;;9.00;7.00;;;;;15.33;79.43;101209.22;5069555;28;47342;-69
2022/04/13 05:50:27;;;;;;;;;9.00;8.33;;;;;15.30;79.42;101212.28;5066509;28;45360;-69
2022/04/13 05:52:52;;;;;;;;;8.33;8.33;;;;;15.31;79.55;101216.75;5061725;28;45251;-70
2022/04/13 05:55:18;;;;;;;;;10.00;10.00;;;;;15.28;80.14;101214.31;5080742;28;45712;-69
2022/04/13 05:57:43;;;;;;;;;11.00;9.00;;;;;15.28;79.95;101222.53;5072815;28;46197;-69
2022/04/13 06:00:11;;;;;;;;;13.00;9.67;;;;;15.27;80.38;101229.03;5078230;28;45760;-69
2022/04/13 06:02:36;;;;;;;;;7.00;7.00;;;;;15.28;80.01;101227.16;5063576;28;45424;-70
2022/04/13 06:05:03;;;;;;;;;13.33;7.33;;;;;15.29;80.26;101232.47;5076563;28;45404;-69
2022/04/13 06:07:28;;;;;;;;;10.00;8.33;;;;;15.33;79.74;101243.97;5070168;28;46932;-69
2022/04/13 06:09:54;;;;;;;;;8.67;7.67;;;;;15.35;79.65;101248.22;5074856;28;45394;-69
2022/04/13 06:12:24;;;;;;;;;8.00;8.00;;;;;15.41;79.31;101249.47;5072495;28;45241;-70
2022/04/13 06:14:50;;;;;;;;;8.33;8.33;;;;;15.43;79.14;101256.47;5074150;28;45582;-69
2022/04/13 06:17:16;;;;;;;;;8.33;8.33;;;;;15.36;79.70;101243.59;5070131;28;45415;-70
2022/04/13 06:19:42;;;;;;;;;8.00;8.00;;;;;15.41;79.38;101263.16;5076631;28;45331;-69
2022/04/13 06:22:07;;;;;;;;;10.67;10.67;;;;;15.32;80.04;101253.19;5071890;28;45389;-70
2022/04/13 06:24:33;;;;;;;;;12.00;11.00;;;;;15.33;80.45;101261.25;5077683;28;45452;-69
2022/04/13 06:26:58;;;;;;;;;13.00;9.33;;;;;15.35;80.28;101264.66;5068227;28;45318;-69
2022/04/13 06:29:23;;;;;;;;;12.67;11.00;;;;;15.32;80.84;101267.75;5077030;27;45372;-70
2022/04/13 06:31:49;;;;;;;;;9.67;9.67;;;;;15.35;80.45;101270.13;5066163;28;45286;-69
2022/04/13 06:34:16;;;;;;;;;9.00;9.00;;;;;15.31;80.70;101266.03;5068006;28;45503;-70
2022/04/13 06:36:41;;;;;;;;;9.00;9.00;;;;;15.37;80.47;101276.31;5077865;28;47361;-71
2022/04/13 06:39:07;;;;;;;;;13.67;12.00;;;;;15.35;80.95;101286.56;5067568;28;45336;-69
2022/04/13 06:41:32;;;;;;;;;12.67;12.00;;;;;15.35;80.75;101286.56;5064933;28;45263;-69
2022/04/13 06:43:58;;;;;;;;;10.33;10.33;;;;;15.40;80.08;101288.81;5065192;28;45534;-70
2022/04/13 06:46:24;;;;;;;;;8.67;8.67;;;;;15.46;79.88;101299.94;5063061;28;45396;-69
2022/04/13 06:48:49;;;;;;;;;16.00;12.00;;;;;15.37;80.13;101303.69;5064491;28;45351;-71
2022/04/13 06:51:15;;;;;;;;;12.33;12.00;;;;;15.31;80.63;101301.63;5070681;28;45390;-70
2022/04/13 06:53:40;;;;;;;;;14.00;12.00;;;;;15.35;81.33;101311.19;5066962;28;45228;-71
2022/04/13 06:56:06;;;;;;;;;9.33;9.33;;;;;15.36;80.80;101312.91;5071467;28;45436;-70
2022/04/13 06:58:31;;;;;;;;;9.33;9.33;;;;;15.34;80.63;101316.88;5080297;28;45492;-70
2022/04/13 07:00:57;;;;;;;;;14.67;13.33;;;;;15.31;81.47;101337.22;5079755;28;45799;-70
2022/04/13 07:03:24;;;;;;;;;15.00;12.33;;;;;15.29;80.50;101341.13;5068716;28;45477;-70
2022/04/13 07:05:49;;;;;;;;;12.00;10.33;;;;;15.23;80.02;101345.38;5072559;28;47142;-70
2022/04/13 07:08:15;;;;;;;;;29.75;25.75;;;;;15.22;80.28;101351.88;5065496;28;45669;-71
2022/04/13 07:10:40;;;;;;;;;18.33;16.33;;;;;15.27;80.79;101354.97;5076817;28;45446;-70
2022/04/13 07:13:07;;;;;;;;;24.33;20.67;;;;;15.24;81.54;101349.84;5066943;27;45820;-70
2022/04/13 07:15:32;;;;;;;;;23.00;19.33;;;;;15.33;81.45;101362.53;5073791;28;46247;-70
2022/04/13 07:17:58;;;;;;;;;45.00;38.25;;;;;15.32;81.65;101374.53;5067419;28;45287;-70
2022/04/13 07:20:23;;;;;;;;;21.00;21.00;;;;;15.34;82.36;101372.44;5073391;28;45173;-70
2022/04/13 07:22:51;;;;;;;;;19.67;18.00;;;;;15.35;82.01;101385.13;5065731;27;45415;-70
2022/04/13 07:25:18;;;;;;;;;17.67;16.00;;;;;15.36;82.20;101385.97;5073157;28;46316;-70
2022/04/13 07:27:44;;;;;;;;;19.00;16.33;;;;;15.30;82.50;101379.28;5071329;27;45298;-70
2022/04/13 07:30:10;;;;;;;;;23.67;17.00;;;;;15.34;82.24;101394.34;5072183;27;45372;-70
2022/04/13 07:32:36;;;;;;;;;20.67;18.67;;;;;15.36;82.20;101392.31;5062682;28;45250;-70
2022/04/13 07:35:03;;;;;;;;;23.00;20.67;;;;;15.36;82.58;101392.31;5069159;28;46329;-70
2022/04/13 07:37:29;;;;;;;;;20.67;17.67;;;;;15.36;82.85;101395.06;5065278;27;45260;-70
2022/04/13 07:39:54;;;;;;;;;29.50;27.75;;;;;15.42;83.29;101388.06;5068050;28;45412;-70
2022/04/13 07:42:24;;;;;;;;;22.33;19.00;;;;;15.39;82.67;101391.16;5063145;28;45343;-70
2022/04/13 07:44:50;;;;;;;;;19.67;16.33;;;;;15.41;83.42;101400.91;5072299;28;45468;-68
2022/04/13 07:47:16;;;;;;;;;14.67;14.67;;;;;15.32;83.60;101396.41;5078422;28;45317;-70
2022/04/13 07:49:42;;;;;;;;;22.33;17.00;;;;;15.40;83.66;101404.69;5076451;28;45401;-70
2022/04/13 07:52:08;;;;;;;;;18.00;18.00;;;;;15.43;83.84;101398.00;5064358;28;45279;-70
2022/04/13 07:54:34;;;;;;;;;24.33;20.00;;;;;15.44;82.54;101400.56;5073522;28;48146;-70
2022/04/13 07:57:00;;;;;;;;;26.00;21.00;;;;;15.27;82.86;101398.75;5063797;28;45548;-70
2022/04/13 07:59:27;;;;;;;;;18.33;15.67;;;;;15.29;83.26;101396.72;5070156;28;45358;-69
2022/04/13 08:01:53;;;;;;;;;26.00;24.00;;;;;15.31;83.69;101396.56;5074992;28;45427;-69
2022/04/13 08:04:18;;;;;;;;;20.33;19.00;;;;;15.39;83.43;101392.00;5072103;28;45462;-69
2022/04/13 08:06:43;;;;;;;;;19.67;19.00;;;;;15.49;83.27;101397.34;5073219;28;45351;-70
2022/04/13 08:09:09;;;;;;;;;23.00;21.00;;;;;15.56;82.59;101399.28;5071849;28;45251;-70
2022/04/13 08:11:34;;;;;;;;;27.00;24.00;;;;;15.58;82.96;101408.19;5074060;27;45534;-70
2022/04/13 08:13:59;;;;;;;;;23.00;22.25;;;;;15.65;83.52;101407.53;5073797;28;45413;-70
2022/04/13 08:16:25;;;;;;;;;24.00;23.33;;;;;15.69;82.80;101395.25;5075588;28;45393;-71
2022/04/13 08:18:50;;;;;;;;;26.67;23.00;;;;;15.73;82.57;101393.88;5075313;28;45369;-70
2022/04/13 08:21:16;;;;;;;;;25.67;21.33;;;;;15.78;82.35;101399.72;5074975;28;45422;-69
2022/04/13 08:23:41;;;;;;;;;26.25;24.00;;;;;15.54;82.77;101404.09;5071206;28;46295;-69
2022/04/13 08:26:06;;;;;;;;;27.25;25.75;;;;;15.40;83.94;101410.16;5072836;28;45407;-70
2022/04/13 08:28:32;;;;;;;;;35.50;27.25;;;;;15.33;84.52;101414.56;5078261;27;45463;-70
2022/04/13 08:30:57;;;;;;;;;27.00;25.50;;;;;15.42;84.47;101418.19;5081089;27;45349;-71
2022/04/13 08:33:24;;;;;;;;;29.50;27.50;;;;;15.30;84.29;101414.88;5068079;28;46230;-70
2022/04/13 08:35:49;;;;;;;;;35.00;30.00;;;;;15.25;85.20;101417.25;5082139;28;45324;-71
2022/04/13 08:38:14;;;;;;;;;31.00;29.50;;;;;15.29;85.65;101418.63;5084173;28;45309;-71
2022/04/13 08:40:54;;;;;;;;;30.00;28.00;;;;;15.43;85.96;101415.28;5071975;27;45328;-71
2022/04/13 08:43:30;;;;;;;;;30.00;27.50;;;;;15.47;85.65;101422.16;5066691;28;46137;-71
2022/04/13 08:45:59;;;;;;;;;33.00;29.25;;;;;15.47;84.64;101433.13;5069196;28;45331;-70
2022/04/13 08:48:26;;;;;;;;;30.67;28.33;;;;;15.53;85.17;101440.72;5068610;28;45374;-71
2022/04/13 08:50:58;;;;;;;;;30.33;25.67;;;;;15.67;84.79;101438.38;5078450;28;46101;-71
2022/04/13 08:53:29;;;;;;;;;24.33;24.00;;;;;15.65;84.14;101443.16;5067445;28;45305;-70
2022/04/13 08:55:57;;;;;;;;;25.67;24.33;;;;;15.77;83.48;101445.44;5075072;28;45366;-71
2022/04/13 08:58:40;;;;;;;;;24.00;24.00;;;;;15.93;82.41;101456.44;5071371;28;45306;-71
2022/04/13 09:01:16;;;;;;;;;22.00;20.00;;;;;15.91;82.29;101452.19;5080513;28;45478;-70
2022/04/13 09:03:46;;;;;;;;;29.67;25.33;;;;;15.94;82.59;101462.78;5070325;27;45165;-70
2022/04/13 09:06:13;;;;;;;;;33.00;31.00;;;;;15.84;82.56;101462.09;5078520;28;45464;-71
2022/04/13 09:08:51;;;;;;;;;30.75;28.50;;;;;15.86;83.34;101465.50;5068151;28;45391;-71
2022/04/13 09:11:17;;;;;;;;;27.50;27.00;;;;;16.08;83.04;101470.38;5078135;28;45343;-71
2022/04/13 09:13:45;;;;;;;;;27.33;24.33;;;;;16.27;81.22;101471.97;5070612;28;45342;-70
2022/04/13 09:16:12;;;;;;;;;24.33;20.67;;;;;16.38;79.95;101463.41;5076519;28;45274;-70
2022/04/13 09:18:37;;;;;;;;;23.00;22.33;;;;;16.48;79.08;101474.25;5072295;28;45381;-70
2022/04/13 09:21:03;;;;;;;;;20.67;19.00;;;;;16.52;79.00;101467.38;5074974;28;45338;-70
2022/04/13 09:23:29;;;;;;;;;24.33;22.00;;;;;16.58;78.06;101467.56;5067992;28;45729;-70
2022/04/13 09:25:56;;;;;;;;;21.33;21.00;;;;;16.67;78.15;101482.19;5073503;28;45451;-70
2022/04/13 09:28:22;;;;;;;;;22.00;20.00;;;;;16.74;77.16;101491.44;5076724;27;45360;-70
2022/04/13 09:30:48;;;;;;;;;23.00;21.00;;;;;16.81;77.23;101483.38;5072440;28;45213;-69
2022/04/13 09:33:13;;;;;;;;;14.33;14.00;;;;;16.94;76.09;101490.09;5066351;28;46019;-70
2022/04/13 09:35:38;;;;;;;;;17.00;14.00;;;;;17.04;75.54;101485.28;5070666;28;45188;-71
2022/04/13 09:38:08;;;;;;;;;17.67;16.33;;;;;17.12;75.85;101495.41;5064984;28;45224;-71
2022/04/13 09:40:37;;;;;;;;;19.00;18.00;;;;;17.08;75.16;101491.28;5069723;28;45475;-71
2022/04/13 09:43:11;;;;;;;;;27.00;22.00;;;;;17.02;75.30;101497.47;5064828;28;46246;-70
2022/04/13 09:45:43;;;;;;;;;17.00;15.25;;;;;16.95;76.13;101485.47;5073357;28;45216;-71
2022/04/13 09:48:14;;;;;;;;;23.00;22.33;;;;;16.83;76.90;101506.03;5073028;28;45451;-71
2022/04/13 09:50:41;;;;;;;;;30.33;29.00;;;;;16.79;77.91;101496.44;5072016;28;45334;-71
2022/04/13 09:53:08;;;;;;;;;22.00;19.67;;;;;16.85;78.10;101498.50;5064809;28;45346;-71
2022/04/13 09:56:03;;;;;;;;;16.67;15.33;;;;;16.84;76.54;101499.53;5076069;28;45334;-71
2022/04/13 09:58:30;;;;;;;;;15.33;13.33;;;;;16.84;76.54;101500.38;5052684;28;45374;-71
2022/04/13 10:01:00;;;;;;;;;20.33;16.33;;;;;16.78;76.84;101483.75;5081834;27;45667;-71
2022/04/13 10:03:26;;;;;;;;;9.33;7.33;;;;;16.81;76.33;101491.63;5069685;28;45366;-71
2022/04/13 10:05:56;;;;;;;;;20.67;16.67;;;;;16.70;77.27;101492.81;5068524;28;45266;-72
2022/04/13 10:08:26;;;;;;;;;24.33;17.33;;;;;16.85;76.64;101495.75;5065040;28;45520;-72
2022/04/13 10:10:57;;;;;;;;;14.67;14.33;;;;;17.04;76.32;101493.50;5067083;28;45675;-71
2022/04/13 10:13:34;;;;;;;;;19.67;17.67;;;;;17.15;76.23;101496.94;5072081;28;46193;-71
2022/04/13 10:16:08;;;;;;;;;17.33;17.33;;;;;17.24;75.59;101502.22;5070386;28;45563;-70
2022/04/13 10:18:54;;;;;;;;;18.33;15.67;;;;;17.37;74.76;101499.84;5066940;28;45494;-70
2022/04/13 10:21:41;;;;;;;;;19.00;16.33;;;;;17.52;73.43;101502.72;5070871;28;45484;-70
2022/04/13 10:24:09;;;;;;;;;18.00;18.00;;;;;17.51;73.36;101504.63;5072707;28;45639;-69
2022/04/13 10:26:39;;;;;;;;;17.00;15.00;;;;;17.49;73.04;101506.66;5074396;28;45553;-69
2022/04/13 10:29:15;;;;;;;;;13.00;13.00;;;;;17.30;73.23;101493.34;5077995;27;45429;-70
2022/04/13 10:31:41;;;;;;;;;18.33;17.00;;;;;17.19;74.04;101501.91;5069904;28;46213;-70
2022/04/13 10:34:07;;;;;;;;;18.33;17.00;;;;;17.10;73.34;101506.53;5069047;28;45962;-71
2022/04/13 10:36:33;;;;;;;;;14.33;14.33;;;;;17.09;74.80;101502.06;5047565;28;45637;-70
2022/04/13 10:38:58;;;;;;;;;17.33;16.33;;;;;16.90;73.86;101505.19;5072814;28;45397;-71
2022/04/13 10:41:26;;;;;;;;;20.00;17.33;;;;;17.03;75.02;101499.16;5068555;28;45479;-72
2022/04/13 10:43:57;;;;;;;;;16.67;16.67;;;;;17.09;74.97;101507.56;5065010;28;47174;-70
2022/04/13 10:46:24;;;;;;;;;12.00;12.00;;;;;16.84;75.54;101516.84;5070900;28;45427;-70
2022/04/13 10:49:07;;;;;;;;;15.33;14.67;;;;;17.00;74.84;101521.50;5068153;28;45450;-70
2022/04/13 10:51:36;;;;;;;;;14.00;14.00;;;;;17.18;74.89;101513.06;5063165;28;45335;-70
2022/04/13 10:54:05;;;;;;;;;14.00;14.00;;;;;17.25;73.51;101501.22;5069988;28;45401;-70
2022/04/13 10:56:32;;;;;;;;;20.33;17.67;;;;;17.26;73.25;101505.69;5077031;27;45361;-70
2022/04/13 10:59:13;;;;;;;;;16.67;15.67;;;;;17.36;72.62;101511.84;5068755;28;45401;-69
2022/04/13 11:01:46;;;;;;;;;12.00;10.33;;;;;17.38;72.53;101506.19;5063857;28;45343;-68
2022/04/13 11:04:12;;;;;;;;;10.00;10.00;;;;;17.48;70.84;101512.34;5074167;28;46136;-69
2022/04/13 11:06:40;;;;;;;;;13.67;13.00;;;;;17.54;71.91;101514.38;5066406;27;45280;-70
2022/04/13 11:09:28;;;;;;;;;13.33;13.00;;;;;17.39;71.75;101514.22;5071966;28;45973;-71
2022/04/13 11:11:56;;;;;;;;;9.00;8.67;;;;;17.26;72.46;101510.31;5067947;28;45246;-71
2022/04/13 11:14:23;;;;;;;;;13.67;10.00;;;;;17.20;73.59;101511.00;5073973;28;48053;-70
2022/04/13 11:17:07;;;;;;;;;12.00;12.00;;;;;17.15;73.40;101510.69;5069469;28;45462;-70